Time,TemperatureF,DewpointF,PressureIn,WindDirection,WindDirectionDegrees,WindSpeedMPH,WindSpeedGustMPH,Humidity,HourlyPrecipIn,Conditions,Clouds,dailyrainin,SoftwareType,DateUTC
2013-09-12 00:01:00,76.1,67.6,29.83,WSW,250,0.0,0.0,75,0.00,,CLR,0.00,VWS V13.01,2013-09-12 04:01:00,
2013-09-12 00:03:00,75.9,67.4,29.83,WSW,249,0.0,5.4,75,0.00,,CLR,0.00,VWS V13.01,2013-09-12 04:03:00,
2013-09-12 00:04:00,75.9,67.4,29.83,WSW,249,0.0,0.0,75,0.00,,CLR,0.00,VWS V13.01,2013-09-12 04:04:00,
2013-09-12 00:08:00,75.7,67.6,29.83,WSW,249,0.0,0.0,76,0.00,,CLR,0.00,VWS V13.01,2013-09-12 04:08:00,
2013-09-12 00:11:00,75.6,67.5,29.83,WSW,249,0.0,0.0,76,0.00,,CLR,0.00,VWS V13.01,2013-09-12 04:11:00,
2013-09-12 00:16:00,75.6,67.5,29.83,WSW,250,0.0,0.0,76,0.00,,CLR,0.00,VWS V13.01,2013-09-12 04:16:00,
2013-09-12 00:17:00,75.4,67.3,29.83,WSW,249,0.0,0.0,76,0.00,,CLR,0.00,VWS V13.01,2013-09-12 04:17:00,
2013-09-12 00:22:00,75.4,67.7,29.83,WSW,250,0.0,0.0,77,0.00,,CLR,0.00,VWS V13.01,2013-09-12 04:22:00,
2013-09-12 00:27:00,75.2,67.5,29.83,WSW,250,0.0,0.0,77,0.00,,CLR,0.00,VWS V13.01,2013-09-12 04:27:00,
2013-09-12 00:32:00,75.0,67.7,29.80,WSW,250,0.0,0.0,78,0.00,,CLR,0.00,VWS V13.01,2013-09-12 04:32:00,
2013-09-12 00:37:00,74.8,67.9,29.80,WSW,249,0.0,0.0,79,0.00,,CLR,0.00,VWS V13.01,2013-09-12 04:37:00,
2013-09-12 00:42:00,74.7,68.1,29.80,WSW,249,0.0,0.0,80,0.00,,CLR,0.00,VWS V13.01,2013-09-12 04:42:00,
2013-09-12 00:47:00,74.5,67.9,29.80,WSW,250,0.0,0.0,80,0.00,,CLR,0.00,VWS V13.01,2013-09-12 04:47:00,
2013-09-12 00:52:00,74.3,67.7,29.80,WSW,249,0.0,0.0,80,0.00,,CLR,0.00,VWS V13.01,2013-09-12 04:52:00,
2013-09-12 00:57:00,74.3,67.7,29.80,WSW,249,0.0,0.0,80,0.00,,CLR,0.00,VWS V13.01,2013-09-12 04:57:00,
2013-09-12 01:02:00,74.1,68.3,29.80,WSW,250,0.0,0.0,82,0.00,,CLR,0.00,VWS V13.01,2013-09-12 05:02:00,
2013-09-12 01:07:00,74.1,68.3,29.80,WSW,249,0.0,0.0,82,0.00,,CLR,0.00,VWS V13.01,2013-09-12 05:07:00,
2013-09-12 01:12:00,74.1,68.6,29.80,WSW,249,0.0,0.0,83,0.00,,CLR,0.00,VWS V13.01,2013-09-12 05:12:00,
2013-09-12 01:17:00,73.9,68.8,29.80,WSW,249,0.0,0.0,84,0.00,,CLR,0.00,VWS V13.01,2013-09-12 05:17:00,
2013-09-12 01:22:00,73.9,68.8,29.80,WSW,249,0.0,0.0,84,0.00,,CLR,0.00,VWS V13.01,2013-09-12 05:22:00,
2013-09-12 01:27:00,73.9,68.8,29.80,WSW,249,0.0,0.0,84,0.00,,CLR,0.00,VWS V13.01,2013-09-12 05:27:00,
2013-09-12 01:32:00,73.9,69.2,29.80,WSW,250,0.0,0.0,85,0.00,,CLR,0.00,VWS V13.01,2013-09-12 05:32:00,
2013-09-12 01:38:00,73.9,69.5,29.80,WSW,250,0.0,0.0,86,0.00,,CLR,0.00,VWS V13.01,2013-09-12 05:38:00,
2013-09-12 01:43:00,74.1,69.7,29.80,WSW,250,0.0,0.0,86,0.00,,CLR,0.00,VWS V13.01,2013-09-12 05:43:00,
2013-09-12 01:48:00,74.1,69.7,29.77,WSW,250,0.0,0.0,86,0.00,,CLR,0.00,VWS V13.01,2013-09-12 05:48:00,
2013-09-12 01:53:00,74.1,70.0,29.77,WSW,249,0.0,5.4,87,0.00,,CLR,0.00,VWS V13.01,2013-09-12 05:53:00,
2013-09-12 01:58:00,74.1,70.0,29.77,WSW,250,0.0,0.0,87,0.00,,CLR,0.00,VWS V13.01,2013-09-12 05:58:00,
2013-09-12 02:03:00,74.1,70.0,29.77,WSW,250,0.0,0.0,87,0.00,,BKN055,0.00,VWS V13.01,2013-09-12 06:03:00,
2013-09-12 02:08:00,74.1,70.3,29.77,WSW,249,0.0,0.0,88,0.00,,BKN055,0.00,VWS V13.01,2013-09-12 06:08:00,
2013-09-12 02:13:00,74.3,70.2,29.77,WSW,249,5.4,5.4,87,0.00,,BKN055,0.00,VWS V13.01,2013-09-12 06:13:00,
2013-09-12 02:18:00,74.5,70.4,29.77,WSW,249,0.0,5.4,87,0.00,,BKN055,0.00,VWS V13.01,2013-09-12 06:18:00,
2013-09-12 02:23:00,74.5,70.4,29.77,WSW,249,0.0,0.0,87,0.00,,BKN055,0.00,VWS V13.01,2013-09-12 06:23:00,
2013-09-12 02:28:00,74.3,70.2,29.77,WSW,250,0.0,0.0,87,0.00,,BKN055,0.00,VWS V13.01,2013-09-12 06:28:00,
2013-09-12 02:33:00,74.1,70.0,29.77,South,187,0.0,0.0,87,0.00,,BKN055,0.00,VWS V13.01,2013-09-12 06:33:00,
2013-09-12 02:38:00,74.1,70.0,29.77,South,187,0.0,0.0,87,0.00,,BKN055,0.00,VWS V13.01,2013-09-12 06:38:00,
2013-09-12 02:43:00,74.1,70.0,29.77,SSW,194,9.8,9.8,87,0.00,,BKN055,0.00,VWS V13.01,2013-09-12 06:43:00,
2013-09-12 02:48:00,74.3,70.2,29.77,South,189,0.0,8.9,87,0.00,,BKN055,0.00,VWS V13.01,2013-09-12 06:48:00,
2013-09-12 02:53:00,74.5,70.0,29.77,East,87,0.0,5.4,86,0.00,,BKN055,0.00,VWS V13.01,2013-09-12 06:53:00,
2013-09-12 02:58:00,74.5,70.0,29.77,ESE,121,0.0,0.0,86,0.00,,BKN055,0.00,VWS V13.01,2013-09-12 06:58:00,
2013-09-12 03:03:00,74.3,69.5,29.77,ESE,121,0.0,0.0,85,0.00,,FEW055,0.00,VWS V13.01,2013-09-12 07:03:00,
2013-09-12 03:08:00,74.1,69.3,29.77,ESE,121,0.0,0.0,85,0.00,,FEW055,0.00,VWS V13.01,2013-09-12 07:08:00,
2013-09-12 03:13:00,73.9,69.2,29.77,East,98,7.2,7.2,85,0.00,,FEW055,0.00,VWS V13.01,2013-09-12 07:13:00,
2013-09-12 03:18:00,73.8,69.3,29.77,East,95,0.0,0.0,86,0.00,,FEW055,0.00,VWS V13.01,2013-09-12 07:18:00,
2013-09-12 03:23:00,73.8,69.3,29.77,East,95,0.0,0.0,86,0.00,,FEW055,0.00,VWS V13.01,2013-09-12 07:23:00,
2013-09-12 03:28:00,73.4,69.0,29.77,East,95,0.0,0.0,86,0.00,,FEW055,0.00,VWS V13.01,2013-09-12 07:28:00,
2013-09-12 03:33:00,73.4,69.0,29.77,East,95,0.0,0.0,86,0.00,,FEW055,0.00,VWS V13.01,2013-09-12 07:33:00,
2013-09-12 03:38:00,73.4,69.3,29.77,WSW,258,0.0,6.3,87,0.00,,FEW055,0.00,VWS V13.01,2013-09-12 07:38:00,
2013-09-12 03:43:00,73.4,69.3,29.77,WSW,258,0.0,0.0,87,0.00,,FEW055,0.00,VWS V13.01,2013-09-12 07:43:00,
2013-09-12 03:48:00,73.4,69.6,29.77,South,191,0.0,5.4,88,0.00,,FEW055,0.00,VWS V13.01,2013-09-12 07:48:00,
2013-09-12 03:53:00,73.4,69.6,29.77,South,191,0.0,0.0,88,0.00,,FEW055,0.00,VWS V13.01,2013-09-12 07:53:00,
2013-09-12 03:58:00,73.4,69.6,29.77,SSW,201,0.0,12.5,88,0.00,,FEW055,0.00,VWS V13.01,2013-09-12 07:58:00,
2013-09-12 04:03:00,73.6,70.1,29.77,SSW,192,0.0,0.0,89,0.00,,FEW065,0.00,VWS V13.01,2013-09-12 08:03:00,
2013-09-12 04:08:00,73.6,69.8,29.77,South,187,0.0,6.3,88,0.00,,FEW065,0.00,VWS V13.01,2013-09-12 08:08:00,
2013-09-12 04:13:00,73.6,69.8,29.77,SSW,196,0.0,6.3,88,0.00,,FEW065,0.00,VWS V13.01,2013-09-12 08:13:00,
2013-09-12 04:18:00,73.6,69.8,29.74,SSW,196,6.3,6.3,88,0.00,,FEW065,0.00,VWS V13.01,2013-09-12 08:18:00,
2013-09-12 04:23:00,73.4,69.6,29.74,SSW,196,0.0,0.0,88,0.00,,FEW065,0.00,VWS V13.01,2013-09-12 08:23:00,
2013-09-12 04:28:00,73.2,69.5,29.74,SSW,196,0.0,0.0,88,0.00,,FEW065,0.00,VWS V13.01,2013-09-12 08:28:00,
2013-09-12 04:33:00,73.2,69.5,29.74,SSW,196,0.0,0.0,88,0.00,,FEW065,0.00,VWS V13.01,2013-09-12 08:33:00,
2013-09-12 04:38:00,73.0,69.3,29.74,SSW,196,0.0,0.0,88,0.00,,FEW065,0.00,VWS V13.01,2013-09-12 08:38:00,
2013-09-12 04:44:00,72.9,69.1,29.74,SSW,196,0.0,0.0,88,0.00,,FEW065,0.00,VWS V13.01,2013-09-12 08:44:00,
2013-09-12 04:49:00,72.9,69.4,29.77,SSW,196,0.0,0.0,89,0.00,,FEW065,0.00,VWS V13.01,2013-09-12 08:49:00,
2013-09-12 04:54:00,72.7,69.3,29.77,SSW,196,0.0,0.0,89,0.00,,FEW065,0.00,VWS V13.01,2013-09-12 08:54:00,
2013-09-12 04:59:00,72.5,69.1,29.77,SSW,196,0.0,0.0,89,0.00,,FEW065,0.00,VWS V13.01,2013-09-12 08:59:00,
2013-09-12 05:04:00,72.5,69.4,29.74,SSW,196,0.0,0.0,90,0.00,,BKN075,0.00,VWS V13.01,2013-09-12 09:04:00,
2013-09-12 05:09:00,72.3,69.2,29.74,SSW,196,0.0,0.0,90,0.00,,BKN075,0.00,VWS V13.01,2013-09-12 09:09:00,
2013-09-12 05:14:00,72.3,69.2,29.74,SSW,196,0.0,0.0,90,0.00,,BKN075,0.00,VWS V13.01,2013-09-12 09:14:00,
2013-09-12 05:19:00,72.3,69.6,29.77,SSW,196,0.0,0.0,91,0.00,,BKN075,0.00,VWS V13.01,2013-09-12 09:19:00,
2013-09-12 05:24:00,72.1,69.4,29.77,SSW,196,0.0,0.0,91,0.00,,BKN075,0.00,VWS V13.01,2013-09-12 09:24:00,
2013-09-12 05:29:00,72.1,69.7,29.77,SSW,196,0.0,0.0,92,0.00,,BKN075,0.00,VWS V13.01,2013-09-12 09:29:00,
2013-09-12 05:34:00,72.0,69.5,29.74,SSW,196,0.0,0.0,92,0.00,,BKN075,0.00,VWS V13.01,2013-09-12 09:34:00,
2013-09-12 05:39:00,72.0,69.5,29.74,South,185,0.0,7.2,92,0.00,,BKN075,0.00,VWS V13.01,2013-09-12 09:39:00,
2013-09-12 05:44:00,72.1,69.7,29.74,ESE,121,0.0,0.0,92,0.00,,BKN075,0.00,VWS V13.01,2013-09-12 09:44:00,
2013-09-12 05:49:00,72.1,69.7,29.77,SE,143,0.0,0.0,92,0.00,,BKN075,0.00,VWS V13.01,2013-09-12 09:49:00,
2013-09-12 05:54:00,72.1,69.7,29.77,SE,143,0.0,0.0,92,0.00,,BKN075,0.00,VWS V13.01,2013-09-12 09:54:00,
2013-09-12 05:59:00,72.0,69.5,29.77,SE,143,0.0,0.0,92,0.00,,BKN075,0.00,VWS V13.01,2013-09-12 09:59:00,
2013-09-12 06:04:00,71.8,69.3,29.77,SE,143,0.0,0.0,92,0.00,,FEW065,0.00,VWS V13.01,2013-09-12 10:04:00,
2013-09-12 06:09:00,71.8,69.3,29.77,SE,143,0.0,0.0,92,0.00,,FEW065,0.00,VWS V13.01,2013-09-12 10:09:00,
2013-09-12 06:14:00,71.8,69.7,29.77,SE,143,0.0,0.0,93,0.00,,FEW065,0.00,VWS V13.01,2013-09-12 10:14:00,
2013-09-12 06:19:00,71.6,69.5,29.74,SE,143,0.0,0.0,93,0.00,,FEW065,0.00,VWS V13.01,2013-09-12 10:19:00,
2013-09-12 06:24:00,71.6,69.5,29.74,SE,143,0.0,0.0,93,0.00,,FEW065,0.00,VWS V13.01,2013-09-12 10:24:00,
2013-09-12 06:29:00,71.4,69.3,29.74,SE,143,0.0,0.0,93,0.00,,FEW065,0.00,VWS V13.01,2013-09-12 10:29:00,
2013-09-12 06:34:00,71.4,69.3,29.74,SE,143,0.0,0.0,93,0.00,,FEW065,0.00,VWS V13.01,2013-09-12 10:34:00,
2013-09-12 06:39:00,71.4,69.3,29.74,SE,143,0.0,0.0,93,0.00,,FEW065,0.00,VWS V13.01,2013-09-12 10:39:00,
2013-09-12 06:44:00,71.4,69.6,29.74,SE,143,0.0,0.0,94,0.00,,FEW065,0.00,VWS V13.01,2013-09-12 10:44:00,
2013-09-12 06:49:00,71.2,69.4,29.74,SE,143,0.0,0.0,94,0.00,,FEW065,0.00,VWS V13.01,2013-09-12 10:49:00,
2013-09-12 06:54:00,71.2,69.4,29.74,SE,143,0.0,0.0,94,0.00,,FEW065,0.00,VWS V13.01,2013-09-12 10:54:00,
2013-09-12 06:59:00,71.2,69.4,29.74,SE,143,0.0,0.0,94,0.00,,FEW065,0.00,VWS V13.01,2013-09-12 10:59:00,
2013-09-12 07:04:00,71.2,69.4,29.74,SE,143,0.0,0.0,94,0.00,,,0.00,VWS V13.01,2013-09-12 11:04:00,
2013-09-12 07:09:00,71.4,69.6,29.74,SE,143,0.0,0.0,94,0.00,,,0.00,VWS V13.01,2013-09-12 11:09:00,
2013-09-12 07:14:00,71.4,69.6,29.74,SE,143,0.0,0.0,94,0.00,,,0.00,VWS V13.01,2013-09-12 11:14:00,
2013-09-12 07:19:00,71.6,70.1,29.74,SE,143,0.0,0.0,95,0.00,,,0.00,VWS V13.01,2013-09-12 11:19:00,
2013-09-12 07:24:00,71.8,70.3,29.74,SE,143,0.0,0.0,95,0.00,,,0.00,VWS V13.01,2013-09-12 11:24:00,
2013-09-12 07:29:00,72.0,70.4,29.74,SE,143,0.0,0.0,95,0.00,,,0.00,VWS V13.01,2013-09-12 11:29:00,
2013-09-12 07:34:00,72.1,70.6,29.77,SE,143,0.0,0.0,95,0.00,,,0.00,VWS V13.01,2013-09-12 11:34:00,
2013-09-12 13:00:00,87.1,66.8,29.68,WNW,290,0.0,0.0,51,0.00,,,0.00,VWS V13.01,2013-09-12 17:00:00,
2013-09-12 13:05:00,87.3,67.5,29.65,WNW,290,0.0,0.0,52,0.00,,BKN035,0.00,VWS V13.01,2013-09-12 17:05:00,
2013-09-12 13:11:00,87.1,66.2,29.65,South,181,0.0,10.7,50,0.00,,BKN035,0.00,VWS V13.01,2013-09-12 17:11:00,
2013-09-12 13:16:00,87.4,66.5,29.65,South,190,0.0,8.1,50,0.00,,BKN035,0.00,VWS V13.01,2013-09-12 17:16:00,
2013-09-12 13:21:00,87.4,65.4,29.65,South,190,6.3,8.1,48,0.00,,BKN035,0.00,VWS V13.01,2013-09-12 17:21:00,
2013-09-12 13:26:00,87.3,65.8,29.65,SSE,164,0.0,6.3,49,0.00,,BKN035,0.00,VWS V13.01,2013-09-12 17:26:00,
2013-09-12 13:31:00,87.3,66.4,29.65,South,178,0.0,6.3,50,0.00,,BKN035,0.00,VWS V13.01,2013-09-12 17:31:00,
2013-09-12 13:36:00,87.3,65.8,29.65,SSW,204,0.0,8.9,49,0.00,,BKN035,0.00,VWS V13.01,2013-09-12 17:36:00,
2013-09-12 13:41:00,87.1,66.8,29.65,WSW,243,0.0,7.2,51,0.00,,BKN035,0.00,VWS V13.01,2013-09-12 17:41:00,
2013-09-12 13:46:00,87.4,66.5,29.65,SSW,198,5.4,6.3,50,0.00,,BKN035,0.00,VWS V13.01,2013-09-12 17:46:00,
2013-09-12 13:51:00,87.4,64.8,29.65,South,182,8.9,14.8,47,0.00,,BKN035,0.00,VWS V13.01,2013-09-12 17:51:00,
2013-09-12 13:56:00,87.6,65.5,29.65,SSW,202,0.0,11.6,48,0.00,,BKN035,0.00,VWS V13.01,2013-09-12 17:56:00,
2013-09-12 14:01:00,88.2,65.4,29.65,SSW,210,5.4,9.8,47,0.00,,CLR,0.00,VWS V13.01,2013-09-12 18:01:00,
2013-09-12 14:06:00,89.2,65.1,29.62,SSE,149,0.0,10.7,45,0.00,,CLR,0.00,VWS V13.01,2013-09-12 18:06:00,
2013-09-12 14:11:00,90.0,64.5,29.62,WSW,253,8.1,11.6,43,0.00,,CLR,0.00,VWS V13.01,2013-09-12 18:11:00,
2013-09-12 14:16:00,89.6,64.2,29.62,WSW,252,10.7,11.6,43,0.00,,CLR,0.00,VWS V13.01,2013-09-12 18:16:00,
2013-09-12 14:21:00,90.1,64.7,29.62,SSW,208,7.2,15.7,43,0.00,,CLR,0.00,VWS V13.01,2013-09-12 18:21:00,
2013-09-12 14:26:00,90.3,65.5,29.62,SSW,193,14.8,14.8,44,0.00,,CLR,0.00,VWS V13.01,2013-09-12 18:26:00,
2013-09-12 14:31:00,90.7,63.8,29.62,SW,229,12.5,20.1,41,0.00,,CLR,0.00,VWS V13.01,2013-09-12 18:31:00,
2013-09-12 14:36:00,90.1,64.0,29.62,West,281,8.9,15.7,42,0.00,,CLR,0.00,VWS V13.01,2013-09-12 18:36:00,
2013-09-12 14:41:00,89.1,63.0,29.62,South,191,8.1,13.9,42,0.00,,CLR,0.00,VWS V13.01,2013-09-12 18:41:00,
2013-09-12 14:46:00,88.5,63.8,29.62,SSE,150,8.9,19.2,44,0.00,,CLR,0.00,VWS V13.01,2013-09-12 18:46:00,
2013-09-12 14:51:00,90.0,64.5,29.62,South,189,6.3,14.8,43,0.00,,CLR,0.00,VWS V13.01,2013-09-12 18:51:00,
2013-09-12 14:56:00,90.7,63.8,29.62,SSW,206,7.2,13.9,41,0.00,,CLR,0.00,VWS V13.01,2013-09-12 18:56:00,
2013-09-12 15:01:00,90.9,63.9,29.62,SSE,163,0.0,12.5,41,0.00,,BKN036,0.00,VWS V13.01,2013-09-12 19:01:00,
2013-09-12 15:06:00,91.2,64.2,29.59,SW,223,5.4,11.6,41,0.00,,BKN036,0.00,VWS V13.01,2013-09-12 19:06:00,
2013-09-12 15:11:00,91.4,63.7,29.59,WSW,237,5.4,9.8,40,0.00,,BKN036,0.00,VWS V13.01,2013-09-12 19:11:00,
2013-09-12 15:16:00,91.4,63.7,29.59,West,276,11.6,11.6,40,0.00,,BKN036,0.00,VWS V13.01,2013-09-12 19:16:00,
2013-09-12 15:21:00,90.9,63.2,29.59,SSW,196,7.2,15.7,40,0.00,,BKN036,0.00,VWS V13.01,2013-09-12 19:21:00,
2013-09-12 15:26:00,90.5,62.9,29.59,SSW,192,0.0,9.8,40,0.00,,BKN036,0.00,VWS V13.01,2013-09-12 19:26:00,
2013-09-12 15:31:00,90.3,63.5,29.59,SE,126,0.0,8.9,41,0.00,,BKN036,0.00,VWS V13.01,2013-09-12 19:31:00,
2013-09-12 15:36:00,90.1,63.3,29.56,SSE,156,5.4,10.7,41,0.00,,BKN036,0.00,VWS V13.01,2013-09-12 19:36:00,
2013-09-12 15:41:00,90.7,63.1,29.56,South,181,0.0,9.8,40,0.00,,BKN036,0.00,VWS V13.01,2013-09-12 19:41:00,
2013-09-12 15:46:00,90.7,63.1,29.56,West,267,7.2,9.8,40,0.00,,BKN036,0.00,VWS V13.01,2013-09-12 19:46:00,
2013-09-12 15:51:00,90.0,63.1,29.56,South,173,8.9,11.6,41,0.00,,BKN036,0.00,VWS V13.01,2013-09-12 19:51:00,
2013-09-12 15:56:00,89.6,62.8,29.56,SE,144,5.4,9.8,41,0.00,,BKN036,0.00,VWS V13.01,2013-09-12 19:56:00,
2013-09-12 16:01:00,88.7,62.0,29.56,West,274,5.4,9.8,41,0.00,,SCT032,0.00,VWS V13.01,2013-09-12 20:01:00,
2013-09-12 16:06:00,87.6,62.4,29.56,SSW,205,6.3,9.8,43,0.00,,SCT032,0.00,VWS V13.01,2013-09-12 20:06:00,
2013-09-12 16:11:00,86.7,62.2,29.56,South,187,11.6,13.9,44,0.00,,SCT032,0.00,VWS V13.01,2013-09-12 20:11:00,
2013-09-12 16:17:00,86.2,62.4,29.56,WNW,295,0.0,6.3,45,0.00,,SCT032,0.00,VWS V13.01,2013-09-12 20:17:00,
2013-09-12 16:22:00,85.6,61.9,29.56,SSE,151,8.9,12.5,45,0.00,,SCT032,0.00,VWS V13.01,2013-09-12 20:22:00,
2013-09-12 16:27:00,85.5,62.3,29.56,WNW,283,0.0,7.2,46,0.00,,SCT032,0.00,VWS V13.01,2013-09-12 20:27:00,
2013-09-12 16:32:00,84.7,62.3,29.56,SSW,201,0.0,7.2,47,0.00,,SCT032,0.00,VWS V13.01,2013-09-12 20:32:00,
2013-09-12 16:37:00,84.4,62.6,29.56,WSW,258,7.2,8.1,48,0.00,,SCT032,0.00,VWS V13.01,2013-09-12 20:37:00,
2013-09-12 16:42:00,84.0,62.2,29.56,SW,230,0.0,8.1,48,0.00,,SCT032,0.00,VWS V13.01,2013-09-12 20:42:00,
2013-09-12 16:47:00,83.8,62.1,29.53,South,189,8.1,8.1,48,0.00,,SCT032,0.00,VWS V13.01,2013-09-12 20:47:00,
2013-09-12 16:52:00,83.5,62.3,29.53,West,268,7.2,7.2,49,0.00,,SCT032,0.00,VWS V13.01,2013-09-12 20:52:00,
2013-09-12 16:57:00,83.1,63.1,29.53,WNW,283,8.9,10.7,51,0.00,,SCT032,0.00,VWS V13.01,2013-09-12 20:57:00,
2013-09-12 17:02:00,82.6,63.2,29.53,WNW,283,0.0,0.0,52,0.00,,FEW110,0.00,VWS V13.01,2013-09-12 21:02:00,
2013-09-12 17:07:00,82.0,63.2,29.53,West,279,0.0,0.0,53,0.00,,FEW110,0.00,VWS V13.01,2013-09-12 21:07:00,
2013-09-12 17:12:00,81.9,63.6,29.53,West,275,0.0,8.9,54,0.00,,FEW110,0.00,VWS V13.01,2013-09-12 21:12:00,
2013-09-12 17:17:00,82.0,63.8,29.56,South,179,0.0,8.9,54,0.00,,FEW110,0.00,VWS V13.01,2013-09-12 21:17:00,
2013-09-12 17:22:00,81.9,63.6,29.56,South,169,5.4,11.6,54,0.00,,FEW110,0.00,VWS V13.01,2013-09-12 21:22:00,
2013-09-12 17:27:00,81.9,63.1,29.56,SW,230,0.0,8.9,53,0.00,,FEW110,0.00,VWS V13.01,2013-09-12 21:27:00,
2013-09-12 17:32:00,81.7,62.9,29.56,SSW,192,0.0,9.8,53,0.00,,FEW110,0.00,VWS V13.01,2013-09-12 21:32:00,
2013-09-12 17:37:00,81.5,62.7,29.56,SW,224,8.1,11.6,53,0.00,,FEW110,0.00,VWS V13.01,2013-09-12 21:37:00,
2013-09-12 17:42:00,81.5,63.3,29.56,WSW,242,6.3,8.1,54,0.00,,FEW110,0.00,VWS V13.01,2013-09-12 21:42:00,
2013-09-12 17:47:00,81.1,62.9,29.56,SW,225,6.3,8.9,54,0.00,,FEW110,0.00,VWS V13.01,2013-09-12 21:47:00,
2013-09-12 17:52:00,81.0,63.3,29.56,WSW,237,6.3,8.1,55,0.00,,FEW110,0.00,VWS V13.01,2013-09-12 21:52:00,
2013-09-12 17:57:00,80.2,61.0,29.56,SSW,194,0.0,5.4,52,0.00,,FEW110,0.00,VWS V13.01,2013-09-12 21:57:00,
2013-09-12 18:02:00,79.5,60.4,29.59,SSW,211,0.0,5.4,52,0.00,,OVC085,0.00,VWS V13.01,2013-09-12 22:02:00,
2013-09-12 18:07:00,78.8,59.7,29.59,SW,220,0.0,7.2,52,0.00,,OVC085,0.00,VWS V13.01,2013-09-12 22:07:00,
2013-09-12 18:12:00,78.1,60.1,29.59,SSW,204,5.4,14.8,54,0.00,,OVC085,0.00,VWS V13.01,2013-09-12 22:12:00,
2013-09-12 18:17:00,77.7,60.3,29.59,SSW,204,0.0,5.4,55,0.00,,OVC085,0.00,VWS V13.01,2013-09-12 22:17:00,
2013-09-12 18:22:00,77.2,60.3,29.59,South,171,6.3,8.1,56,0.00,,OVC085,0.00,VWS V13.01,2013-09-12 22:22:00,
2013-09-12 18:27:00,76.5,60.1,29.59,SSW,197,7.2,13.4,57,0.00,,OVC085,0.00,VWS V13.01,2013-09-12 22:27:00,
2013-09-12 18:32:00,75.9,60.6,29.59,SSW,197,8.9,9.8,59,0.00,,OVC085,0.00,VWS V13.01,2013-09-12 22:32:00,
2013-09-12 18:37:00,75.2,61.3,29.59,SSW,193,0.0,6.3,62,0.00,,OVC085,0.00,VWS V13.01,2013-09-12 22:37:00,
2013-09-12 18:42:00,74.3,61.8,29.59,SSW,195,0.0,7.2,65,0.00,,OVC085,0.00,VWS V13.01,2013-09-12 22:42:00,
2013-09-12 18:47:00,73.6,62.0,29.59,SSW,194,0.0,0.0,67,0.00,,OVC085,0.00,VWS V13.01,2013-09-12 22:47:00,
2013-09-12 18:52:00,73.0,61.9,29.59,SSW,194,0.0,0.0,68,0.00,,OVC085,0.00,VWS V13.01,2013-09-12 22:52:00,
2013-09-12 18:58:00,72.5,62.2,29.59,SSW,194,0.0,0.0,70,0.00,,OVC085,0.00,VWS V13.01,2013-09-12 22:58:00,
2013-09-12 19:03:00,72.3,62.8,29.56,SSW,194,0.0,0.0,72,0.04,,-RA,0.04,VWS V13.01,2013-09-12 23:03:00,
2013-09-12 19:08:00,72.1,63.4,29.56,SSW,195,0.0,0.0,74,0.04,,-RA,0.04,VWS V13.01,2013-09-12 23:08:00,
2013-09-12 19:13:00,72.0,64.4,29.56,SSW,194,0.0,0.0,77,0.04,,-RA,0.04,VWS V13.01,2013-09-12 23:13:00,
2013-09-12 19:18:00,71.8,64.6,29.56,SSW,195,0.0,0.0,78,0.04,,-RA,0.04,VWS V13.01,2013-09-12 23:18:00,
2013-09-12 19:23:00,71.4,64.2,29.56,SSW,195,0.0,0.0,78,0.04,,-RA,0.04,VWS V13.01,2013-09-12 23:23:00,
2013-09-12 19:28:00,71.2,65.1,29.56,SSW,195,0.0,0.0,81,0.08,,-RA,0.08,VWS V13.01,2013-09-12 23:28:00,
2013-09-12 19:33:00,71.1,64.9,29.56,SSW,195,0.0,0.0,81,0.08,,-RA,0.08,VWS V13.01,2013-09-12 23:33:00,
2013-09-12 19:38:00,70.9,65.1,29.56,SSW,194,0.0,0.0,82,0.08,,-RA,0.08,VWS V13.01,2013-09-12 23:38:00,
2013-09-12 19:43:00,71.1,65.6,29.56,SSW,194,0.0,0.0,83,0.08,,-RA,0.08,VWS V13.01,2013-09-12 23:43:00,
2013-09-12 19:48:00,71.1,65.6,29.56,SSW,195,0.0,0.0,83,0.08,,-RA,0.08,VWS V13.01,2013-09-12 23:48:00,
2013-09-12 19:53:00,70.9,65.5,29.56,SSW,194,0.0,0.0,83,0.08,,-RA,0.08,VWS V13.01,2013-09-12 23:53:00,
2013-09-12 19:58:00,70.7,65.6,29.56,SSW,195,0.0,0.0,84,0.08,,-RA,0.08,VWS V13.01,2013-09-12 23:58:00,
2013-09-12 20:03:00,70.7,66.0,29.56,SSW,194,0.0,0.0,85,0.08,,CLR,0.08,VWS V13.01,2013-09-13 00:03:00,
2013-09-12 20:08:00,70.7,66.3,29.56,SSW,194,0.0,0.0,86,0.08,,CLR,0.08,VWS V13.01,2013-09-13 00:08:00,
2013-09-12 20:13:00,70.5,66.1,29.56,SSW,194,0.0,0.0,86,0.04,,CLR,0.08,VWS V13.01,2013-09-13 00:13:00,
2013-09-12 20:18:00,70.5,66.1,29.56,SSW,195,0.0,0.0,86,0.04,,CLR,0.08,VWS V13.01,2013-09-13 00:18:00,
2013-09-12 20:23:00,70.3,66.3,29.56,SSW,194,0.0,0.0,87,0.04,,CLR,0.08,VWS V13.01,2013-09-13 00:23:00,
2013-09-12 20:28:00,70.2,66.4,29.56,SSW,195,0.0,0.0,88,0.04,,CLR,0.08,VWS V13.01,2013-09-13 00:28:00,
2013-09-12 20:33:00,70.2,66.4,29.56,SSW,195,0.0,0.0,88,0.00,,CLR,0.08,VWS V13.01,2013-09-13 00:33:00,
2013-09-12 20:38:00,70.2,66.8,29.56,SSW,194,0.0,0.0,89,0.00,,CLR,0.08,VWS V13.01,2013-09-13 00:38:00,
2013-09-12 20:43:00,70.0,66.6,29.56,SSW,194,0.0,0.0,89,0.00,,CLR,0.08,VWS V13.01,2013-09-13 00:43:00,
2013-09-12 20:48:00,69.8,66.7,29.56,SSW,195,0.0,0.0,90,0.00,,CLR,0.08,VWS V13.01,2013-09-13 00:48:00,
2013-09-12 20:53:00,69.8,66.7,29.56,SSW,195,0.0,0.0,90,0.00,,CLR,0.08,VWS V13.01,2013-09-13 00:53:00,
2013-09-12 20:58:00,69.8,66.7,29.56,SSW,195,0.0,0.0,90,0.00,,CLR,0.08,VWS V13.01,2013-09-13 00:58:00,
2013-09-12 21:03:00,69.8,66.7,29.56,SSW,194,0.0,0.0,90,0.00,,CLR,0.08,VWS V13.01,2013-09-13 01:03:00,
2013-09-12 21:08:00,69.8,67.1,29.56,SSW,194,0.0,0.0,91,0.00,,CLR,0.08,VWS V13.01,2013-09-13 01:08:00,
2013-09-12 21:14:00,69.8,67.1,29.56,SSW,195,0.0,0.0,91,0.00,,CLR,0.08,VWS V13.01,2013-09-13 01:14:00,
2013-09-12 21:19:00,69.8,67.1,29.56,SSW,195,0.0,0.0,91,0.00,,CLR,0.08,VWS V13.01,2013-09-13 01:19:00,
2013-09-12 21:24:00,69.6,66.9,29.56,SSW,195,0.0,0.0,91,0.00,,CLR,0.08,VWS V13.01,2013-09-13 01:24:00,
2013-09-12 21:29:00,69.6,67.2,29.56,SSW,195,0.0,0.0,92,0.00,,CLR,0.08,VWS V13.01,2013-09-13 01:29:00,
2013-09-12 21:34:00,69.8,67.4,29.56,SSW,194,0.0,0.0,92,0.00,,CLR,0.08,VWS V13.01,2013-09-13 01:34:00,
2013-09-12 21:39:00,69.8,67.4,29.56,SSW,195,0.0,0.0,92,0.00,,CLR,0.08,VWS V13.01,2013-09-13 01:39:00,
2013-09-12 21:44:00,69.6,67.2,29.56,SSW,194,0.0,0.0,92,0.00,,CLR,0.08,VWS V13.01,2013-09-13 01:44:00,
2013-09-12 21:49:00,69.8,67.4,29.56,SSW,194,0.0,0.0,92,0.00,,CLR,0.08,VWS V13.01,2013-09-13 01:49:00,
2013-09-12 21:54:00,69.8,67.4,29.56,SSW,194,0.0,0.0,92,0.00,,CLR,0.08,VWS V13.01,2013-09-13 01:54:00,
2013-09-12 21:59:00,69.8,67.4,29.56,SSW,195,0.0,0.0,92,0.00,,CLR,0.08,VWS V13.01,2013-09-13 01:59:00,
2013-09-12 22:04:00,69.8,67.4,29.56,SSW,195,0.0,0.0,92,0.00,,CLR,0.08,VWS V13.01,2013-09-13 02:04:00,
2013-09-12 22:09:00,69.8,67.4,29.56,SSW,195,0.0,0.0,92,0.00,,CLR,0.08,VWS V13.01,2013-09-13 02:09:00,
2013-09-12 22:14:00,69.6,67.2,29.56,SSW,195,0.0,0.0,92,0.00,,CLR,0.08,VWS V13.01,2013-09-13 02:14:00,
2013-09-12 22:19:00,69.6,67.5,29.56,SSW,195,0.0,0.0,93,0.00,,CLR,0.08,VWS V13.01,2013-09-13 02:19:00,
2013-09-12 22:24:00,69.4,67.3,29.56,SSW,194,0.0,0.0,93,0.00,,CLR,0.08,VWS V13.01,2013-09-13 02:24:00,
2013-09-12 22:29:00,69.4,67.3,29.56,SSW,195,0.0,0.0,93,0.00,,CLR,0.08,VWS V13.01,2013-09-13 02:29:00,
2013-09-12 22:34:00,69.4,67.3,29.56,SSW,194,0.0,0.0,93,0.00,,CLR,0.08,VWS V13.01,2013-09-13 02:34:00,
2013-09-12 22:39:00,69.3,67.2,29.56,SSW,195,0.0,0.0,93,0.00,,CLR,0.08,VWS V13.01,2013-09-13 02:39:00,
2013-09-12 22:44:00,69.4,67.3,29.56,SSW,195,0.0,0.0,93,0.00,,CLR,0.08,VWS V13.01,2013-09-13 02:44:00,
2013-09-12 22:49:00,69.3,67.2,29.56,SSW,194,0.0,0.0,93,0.00,,CLR,0.08,VWS V13.01,2013-09-13 02:49:00,
2013-09-12 22:54:00,69.3,67.2,29.56,SSW,195,0.0,0.0,93,0.00,,CLR,0.08,VWS V13.01,2013-09-13 02:54:00,
2013-09-12 22:59:00,69.3,67.5,29.56,SSW,194,0.0,0.0,94,0.00,,CLR,0.08,VWS V13.01,2013-09-13 02:59:00,
2013-09-12 23:04:00,69.3,67.5,29.56,SSW,194,0.0,0.0,94,0.00,,BKN110,0.08,VWS V13.01,2013-09-13 03:04:00,
2013-09-12 23:09:00,69.3,67.5,29.56,SSW,194,0.0,0.0,94,0.00,,BKN110,0.08,VWS V13.01,2013-09-13 03:09:00,
2013-09-12 23:14:00,69.3,67.5,29.56,SSW,195,0.0,0.0,94,0.00,,BKN110,0.08,VWS V13.01,2013-09-13 03:14:00,
2013-09-12 23:20:00,69.3,67.5,29.56,SSW,195,0.0,0.0,94,0.00,,BKN110,0.08,VWS V13.01,2013-09-13 03:20:00,
2013-09-12 23:25:00,69.1,67.3,29.56,SSW,194,0.0,0.0,94,0.00,,BKN110,0.08,VWS V13.01,2013-09-13 03:25:00,
2013-09-12 23:30:00,69.1,67.3,29.56,SSW,195,0.0,0.0,94,0.00,,BKN110,0.08,VWS V13.01,2013-09-13 03:30:00,
2013-09-12 23:35:00,69.1,67.3,29.56,SSW,194,0.0,0.0,94,0.00,,BKN110,0.08,VWS V13.01,2013-09-13 03:35:00,
2013-09-12 23:40:00,69.1,67.3,29.56,SSW,195,0.0,0.0,94,0.00,,BKN110,0.08,VWS V13.01,2013-09-13 03:40:00,
2013-09-12 23:45:00,69.1,67.3,29.56,SSW,195,0.0,0.0,94,0.00,,BKN110,0.08,VWS V13.01,2013-09-13 03:45:00,
2013-09-12 23:50:00,69.3,67.8,29.56,SSW,194,0.0,0.0,95,0.00,,BKN110,0.08,VWS V13.01,2013-09-13 03:50:00,
2013-09-12 23:55:00,69.3,67.8,29.56,SSW,195,0.0,0.0,95,0.00,,BKN110,0.08,VWS V13.01,2013-09-13 03:55:00,